Time;durP1;ratioP1;P1;durP2;ratioP2;P2;SDS_P1;SDS_P2;PMS_P1;PMS_P2;Temp;Humidity;BMP_temperature;BMP_pressure;BME280_temperature;BME280_humidity;BME280_pressure;Samples;Min_cycle;Max_cycle;Signal;HPM_P1;HPM_P2
2022/03/20 00:00:46;;;;;;;8.95;8.05;;;4.80;56.00;;;;;;642683;221;26737;-62
2022/03/20 00:03:14;;;;;;;8.93;8.13;;;4.60;54.80;;;;;;641143;220;26590;-62
2022/03/20 00:05:42;;;;;;;8.88;7.62;;;4.60;55.00;;;;;;644595;221;26534;-62
2022/03/20 00:08:11;;;;;;;9.23;8.30;;;4.70;54.50;;;;;;647282;221;26561;-61
2022/03/20 00:10:38;;;;;;;9.40;8.40;;;4.70;54.50;;;;;;636923;225;26707;-61
2022/03/20 00:13:07;;;;;;;9.55;8.15;;;4.60;54.50;;;;;;621636;229;26912;-62
2022/03/20 00:15:33;;;;;;;9.82;7.97;;;4.60;54.00;;;;;;631065;225;26762;-62
2022/03/20 00:18:00;;;;;;;11.70;8.90;;;4.60;53.90;;;;;;615772;232;26622;-62
2022/03/20 00:20:28;;;;;;;9.02;8.07;;;4.70;53.90;;;;;;631694;225;26889;-62
2022/03/20 00:22:56;;;;;;;9.88;8.93;;;4.70;53.80;;;;;;645007;221;26505;-62
2022/03/20 00:25:23;;;;;;;9.60;8.52;;;4.70;53.50;;;;;;638443;223;26814;-61
2022/03/20 00:27:49;;;;;;;11.12;8.70;;;4.60;53.40;;;;;;638583;221;26554;-61
2022/03/20 00:30:16;;;;;;;9.88;8.57;;;4.70;52.80;;;;;;639722;223;26766;-60
2022/03/20 00:32:44;;;;;;;24.95;9.38;;;4.70;52.80;;;;;;644608;221;26520;-59
2022/03/20 00:35:12;;;;;;;14.02;9.20;;;4.70;52.90;;;;;;637931;225;26475;-59
2022/03/20 00:37:40;;;;;;;10.27;9.00;;;4.60;52.90;;;;;;638958;221;26544;-59
2022/03/20 00:40:08;;;;;;;10.40;9.27;;;4.60;52.90;;;;;;638120;225;26496;-59
2022/03/20 00:42:36;;;;;;;9.70;7.93;;;4.60;52.40;;;;;;639754;221;26531;-59
2022/03/20 00:45:04;;;;;;;11.52;9.25;;;4.60;52.40;;;;;;645791;221;26578;-59
2022/03/20 00:47:31;;;;;;;10.05;8.70;;;4.60;52.40;;;;;;631997;225;26442;-59
2022/03/20 00:49:58;;;;;;;10.98;8.65;;;4.50;52.60;;;;;;621043;230;26739;-61
2022/03/20 00:52:25;;;;;;;10.55;8.32;;;4.50;52.80;;;;;;633222;225;26540;-59
2022/03/20 00:54:53;;;;;;;10.38;9.00;;;4.50;52.60;;;;;;628887;225;26800;-59
2022/03/20 00:57:20;;;;;;;9.80;8.77;;;4.50;52.50;;;;;;622453;226;26506;-59
2022/03/20 00:59:48;;;;;;;10.88;8.50;;;4.50;52.40;;;;;;630996;228;26527;-59
2022/03/20 01:02:15;;;;;;;10.13;9.15;;;4.50;52.40;;;;;;630605;225;26588;-59
2022/03/20 01:04:43;;;;;;;8.82;7.93;;;4.40;52.40;;;;;;627455;225;26550;-59
2022/03/20 01:07:10;;;;;;;10.88;8.85;;;4.40;52.20;;;;;;627186;227;27240;-59
2022/03/20 01:09:37;;;;;;;9.63;8.48;;;4.50;52.70;;;;;;615508;230;26611;-59
2022/03/20 01:12:06;;;;;;;9.35;8.45;;;4.50;52.30;;;;;;618100;230;26825;-59
2022/03/20 01:14:33;;;;;;;11.57;9.10;;;4.40;51.80;;;;;;640010;221;26825;-59
2022/03/20 01:17:00;;;;;;;9.95;8.95;;;4.40;52.20;;;;;;651185;221;26549;-59
2022/03/20 01:19:27;;;;;;;11.63;8.52;;;4.40;52.00;;;;;;641142;221;26714;-59
2022/03/20 01:21:55;;;;;;;9.38;8.48;;;4.40;51.90;;;;;;628169;225;26568;-59
2022/03/20 01:24:24;;;;;;;9.63;8.30;;;4.40;52.00;;;;;;623794;226;26575;-59
2022/03/20 01:26:50;;;;;;;11.48;8.90;;;4.40;52.00;;;;;;633257;226;26504;-59
2022/03/20 01:29:17;;;;;;;9.82;8.75;;;4.30;51.70;;;;;;638676;225;26459;-59
2022/03/20 01:31:45;;;;;;;11.20;9.85;;;4.30;52.30;;;;;;638734;221;26725;-59
2022/03/20 01:34:12;;;;;;;10.63;9.02;;;4.30;52.30;;;;;;638795;223;26573;-60
2022/03/20 01:36:39;;;;;;;10.57;9.48;;;4.40;51.90;;;;;;646083;221;26792;-59
2022/03/20 01:39:06;;;;;;;10.45;9.32;;;4.40;51.60;;;;;;636935;225;26448;-59
2022/03/20 01:41:33;;;;;;;9.98;8.52;;;4.40;51.80;;;;;;625575;229;26534;-59
2022/03/20 01:44:01;;;;;;;12.73;9.38;;;4.30;52.80;;;;;;646143;221;26517;-59
2022/03/20 01:46:29;;;;;;;10.02;8.70;;;4.20;52.00;;;;;;647746;221;26522;-59
2022/03/20 01:48:56;;;;;;;12.32;9.98;;;4.20;52.00;;;;;;633088;225;26583;-59
2022/03/20 01:54:06;;;;;;;10.73;9.15;;;4.20;52.10;;;;;;615194;230;26602;-60
2022/03/20 01:56:33;;;;;;;10.07;8.95;;;4.20;52.40;;;;;;638015;223;26787;-60
2022/03/20 01:59:03;;;;;;;11.27;8.85;;;4.10;52.70;;;;;;640035;225;26501;-60
2022/03/20 02:01:30;;;;;;;10.75;9.45;;;4.10;52.70;;;;;;637378;225;26542;-60
2022/03/20 02:03:57;;;;;;;9.80;8.80;;;4.10;52.70;;;;;;636489;225;26525;-60
2022/03/20 02:06:25;;;;;;;10.90;9.80;;;4.00;52.90;;;;;;633782;225;26883;-60
2022/03/20 02:08:51;;;;;;;11.25;9.05;;;4.00;52.60;;;;;;639217;221;26488;-61
2022/03/20 02:11:19;;;;;;;9.88;8.93;;;4.00;53.00;;;;;;639005;221;26471;-60
2022/03/20 02:13:46;;;;;;;10.48;9.38;;;4.00;52.90;;;;;;638360;225;26469;-60
2022/03/20 02:16:14;;;;;;;10.25;9.13;;;3.80;52.90;;;;;;634539;224;26567;-58
2022/03/20 02:18:41;;;;;;;13.50;9.60;;;3.80;52.90;;;;;;650216;221;26545;-59
2022/03/20 02:21:08;;;;;;;10.10;9.10;;;3.80;53.80;;;;;;617305;230;26566;-60
2022/03/20 02:23:36;;;;;;;12.48;9.55;;;3.80;52.90;;;;;;620631;232;26799;-60
2022/03/20 02:26:03;;;;;;;10.65;9.23;;;3.80;52.90;;;;;;634109;224;26568;-61
2022/03/20 02:28:30;;;;;;;12.73;9.18;;;3.80;53.30;;;;;;639777;224;26781;-60
2022/03/20 02:30:57;;;;;;;11.60;9.27;;;3.80;52.80;;;;;;638754;225;26481;-60
2022/03/20 02:33:27;;;;;;;9.95;8.95;;;3.80;53.10;;;;;;641867;221;26762;-59
2022/03/20 02:35:52;;;;;;;10.40;9.30;;;3.80;52.80;;;;;;647546;221;26572;-59
2022/03/20 02:38:20;;;;;;;10.35;9.27;;;3.80;52.70;;;;;;633489;225;26506;-60
2022/03/20 02:40:48;;;;;;;11.18;9.90;;;3.80;52.80;;;;;;617462;229;26567;-60
2022/03/20 02:43:17;;;;;;;12.37;9.85;;;3.70;53.40;;;;;;633199;225;26604;-60
2022/03/20 02:45:44;;;;;;;10.77;9.30;;;3.70;53.30;;;;;;615803;233;26856;-59
2022/03/20 02:48:12;;;;;;;10.55;9.45;;;3.80;52.80;;;;;;616532;230;26487;-60
2022/03/20 02:50:40;;;;;;;12.25;10.18;;;3.80;53.00;;;;;;630423;225;26760;-60
2022/03/20 02:53:11;;;;;;;10.77;9.60;;;3.80;53.00;;;;;;630439;225;26525;-61
2022/03/20 02:55:35;;;;;;;10.93;9.70;;;3.70;53.20;;;;;;615345;233;26648;-60
2022/03/20 02:58:03;;;;;;;10.95;9.80;;;3.70;53.20;;;;;;635500;225;26740;-60
2022/03/20 03:00:30;;;;;;;10.35;9.05;;;3.60;53.20;;;;;;650122;221;26511;-60
2022/03/20 03:02:57;;;;;;;12.13;9.57;;;3.60;53.00;;;;;;646091;221;26734;-61
2022/03/20 03:05:25;;;;;;;11.38;10.27;;;3.50;52.90;;;;;;634576;225;26536;-60
2022/03/20 03:12:58;;;;;;;10.55;9.10;;;3.50;53.40;;;;;;649199;221;26775;-61
2022/03/20 03:15:25;;;;;;;11.93;10.07;;;3.60;52.70;;;;;;637704;225;26543;-61
2022/03/20 03:17:55;;;;;;;10.85;9.80;;;3.70;53.20;;;;;;640762;221;26753;-61
2022/03/20 03:20:20;;;;;;;9.98;8.70;;;3.60;52.80;;;;;;638163;221;26500;-61
2022/03/20 03:22:47;;;;;;;13.05;9.32;;;3.60;52.90;;;;;;637672;224;26532;-61
2022/03/20 03:25:15;;;;;;;10.60;9.55;;;3.50;53.20;;;;;;645425;221;26536;-59
2022/03/20 03:27:43;;;;;;;11.30;10.10;;;3.50;52.70;;;;;;638526;221;26504;-59
2022/03/20 03:30:14;;;;;;;11.35;9.80;;;3.40;52.80;;;;;;638161;225;26500;-59
2022/03/20 03:32:41;;;;;;;10.55;9.55;;;3.40;52.70;;;;;;640507;223;26520;-58
2022/03/20 03:37:41;;;;;;;10.05;9.07;;;3.40;53.00;;;;;;635566;225;26529;-59
2022/03/20 03:40:10;;;;;;;11.38;10.20;;;3.50;52.90;;;;;;631170;225;26776;-59
2022/03/20 03:42:38;;;;;;;10.27;9.27;;;3.50;53.30;;;;;;628857;226;26566;-59
2022/03/20 03:45:08;;;;;;;11.10;9.60;;;3.40;53.30;;;;;;626504;229;26587;-59
2022/03/20 03:47:34;;;;;;;11.43;9.45;;;3.40;53.20;;;;;;645163;221;26516;-59
2022/03/20 03:50:01;;;;;;;12.27;9.57;;;3.40;53.00;;;;;;638843;223;26721;-60
2022/03/20 03:52:28;;;;;;;12.70;10.48;;;3.40;53.50;;;;;;638085;224;26568;-61
2022/03/20 03:54:55;;;;;;;10.60;9.50;;;3.30;53.00;;;;;;637719;225;26774;-61
2022/03/20 03:57:22;;;;;;;10.40;9.38;;;3.40;53.60;;;;;;638313;225;26546;-60
2022/03/20 03:59:49;;;;;;;11.00;9.68;;;3.30;53.20;;;;;;638088;225;26750;-61
2022/03/20 04:02:17;;;;;;;10.50;9.48;;;3.30;53.30;;;;;;640679;221;26553;-61
2022/03/20 04:04:45;;;;;;;10.85;9.70;;;3.20;53.30;;;;;;638308;225;26567;-61
2022/03/20 04:07:12;;;;;;;11.57;9.93;;;3.20;53.20;;;;;;638534;221;26633;-61
2022/03/20 04:09:40;;;;;;;10.52;9.32;;;3.20;53.20;;;;;;639407;221;26564;-60
2022/03/20 04:12:09;;;;;;;9.68;8.68;;;3.20;53.80;;;;;;646045;220;26514;-60
2022/03/20 04:14:36;;;;;;;11.10;9.30;;;3.20;53.70;;;;;;637255;225;26528;-60
2022/03/20 04:17:05;;;;;;;10.02;9.02;;;3.20;53.50;;;;;;622963;230;26537;-59
2022/03/20 04:19:31;;;;;;;11.82;9.43;;;3.30;53.70;;;;;;649730;221;26791;-60
2022/03/20 04:21:58;;;;;;;10.73;9.63;;;3.20;53.90;;;;;;632285;225;26546;-60
2022/03/20 04:24:25;;;;;;;10.20;9.20;;;3.30;53.60;;;;;;624240;230;26777;-60
2022/03/20 04:26:54;;;;;;;11.55;10.35;;;3.20;53.70;;;;;;633914;225;26520;-59
2022/03/20 04:29:20;;;;;;;12.88;9.80;;;3.10;54.00;;;;;;632525;227;26675;-59
2022/03/20 04:31:48;;;;;;;13.48;10.02;;;3.00;54.00;;;;;;632844;225;26481;-60
2022/03/20 04:34:16;;;;;;;10.60;9.38;;;3.10;54.00;;;;;;640047;221;26603;-60
2022/03/20 04:36:42;;;;;;;11.35;9.63;;;3.00;54.20;;;;;;630189;225;26470;-59
2022/03/20 04:39:10;;;;;;;12.15;9.23;;;3.00;54.10;;;;;;621036;231;26773;-59
2022/03/20 04:41:38;;;;;;;10.68;9.57;;;3.00;54.10;;;;;;629107;225;26795;-59
2022/03/20 04:44:07;;;;;;;10.45;9.45;;;3.00;54.30;;;;;;627339;227;26533;-59
2022/03/20 04:46:33;;;;;;;11.75;9.75;;;2.90;54.70;;;;;;615560;234;26583;-60
2022/03/20 04:59:11;;;;;;;11.32;9.88;;;2.80;54.90;;;;;;627005;225;27154;-59
2022/03/20 05:01:39;;;;;;;10.77;9.65;;;2.60;55.30;;;;;;631255;225;26478;-60
2022/03/20 05:04:07;;;;;;;10.27;9.23;;;2.60;55.30;;;;;;625003;229;26584;-60
2022/03/20 05:06:34;;;;;;;11.32;9.45;;;2.60;55.10;;;;;;646175;221;26925;-60
2022/03/20 05:14:07;;;;;;;12.95;9.93;;;2.70;55.40;;;;;;634165;225;26513;-60
2022/03/20 05:16:35;;;;;;;11.25;10.05;;;2.60;55.10;;;;;;638331;225;26552;-60
2022/03/20 05:19:03;;;;;;;10.68;9.57;;;2.60;55.90;;;;;;638456;225;26554;-60
2022/03/20 05:21:30;;;;;;;10.57;9.48;;;2.60;55.70;;;;;;637101;225;26873;-60
2022/03/20 05:23:57;;;;;;;10.63;9.43;;;2.70;55.50;;;;;;635968;225;26555;-60
2022/03/20 05:26:25;;;;;;;12.65;10.45;;;2.60;55.30;;;;;;646510;221;27150;-60
2022/03/20 05:28:52;;;;;;;11.25;10.05;;;2.60;55.30;;;;;;636844;225;26596;-60
2022/03/20 05:31:19;;;;;;;12.13;10.05;;;2.60;55.30;;;;;;642992;221;26747;-60
2022/03/20 05:33:46;;;;;;;11.73;10.52;;;2.70;55.30;;;;;;633556;225;26513;-60
2022/03/20 05:36:14;;;;;;;11.07;9.50;;;2.70;55.20;;;;;;622316;230;26953;-60
2022/03/20 05:38:41;;;;;;;11.85;10.40;;;2.70;55.10;;;;;;631964;227;26585;-61
2022/03/20 05:43:41;;;;;;;15.32;10.07;;;2.70;55.10;;;;;;649765;221;26738;-66
2022/03/20 05:46:08;;;;;;;11.95;10.20;;;2.70;54.90;;;;;;637396;225;26531;-64
2022/03/20 05:48:37;;;;;;;12.20;10.15;;;2.70;55.00;;;;;;640237;221;27148;-66
2022/03/20 05:51:03;;;;;;;10.52;9.48;;;2.70;55.00;;;;;;639638;221;26710;-65
2022/03/20 05:53:30;;;;;;;10.63;9.55;;;2.70;55.00;;;;;;647844;221;26512;-65
2022/03/20 05:58:33;;;;;;;11.73;10.52;;;2.80;54.70;;;;;;636446;224;27259;-68
2022/03/20 06:01:00;;;;;;;14.07;11.05;;;2.80;55.00;;;;;;638403;223;26790;-68
2022/03/20 06:03:28;;;;;;;13.70;10.18;;;2.70;54.40;;;;;;639302;225;26491;-69
2022/03/20 06:05:55;;;;;;;12.73;10.88;;;2.80;54.40;;;;;;639042;225;27099;-68
2022/03/20 06:08:22;;;;;;;11.82;10.63;;;2.90;54.80;;;;;;638704;225;26473;-68
2022/03/20 06:10:50;;;;;;;11.43;10.18;;;2.90;54.20;;;;;;648646;221;26796;-67
2022/03/20 06:13:16;;;;;;;12.60;10.30;;;2.90;54.10;;;;;;638744;225;26504;-68
2022/03/20 06:15:46;;;;;;;11.60;10.30;;;3.00;54.20;;;;;;638991;221;27275;-68
2022/03/20 06:18:12;;;;;;;11.15;10.05;;;3.00;54.00;;;;;;638774;223;26481;-68
2022/03/20 06:20:37;;;;;;;13.32;10.88;;;3.00;53.90;;;;;;635558;224;26742;-67
2022/03/20 06:23:05;;;;;;;11.73;10.50;;;3.10;54.20;;;;;;635975;225;26507;-68
2022/03/20 06:25:32;;;;;;;12.43;10.80;;;3.10;54.20;;;;;;643331;221;26793;-67
2022/03/20 06:28:01;;;;;;;11.57;10.38;;;3.20;54.00;;;;;;642856;220;26568;-68
2022/03/20 06:30:28;;;;;;;11.40;10.07;;;3.20;54.00;;;;;;632145;225;26488;-68
2022/03/20 06:32:56;;;;;;;12.05;10.38;;;3.20;53.60;;;;;;641261;221;26575;-68
2022/03/20 06:35:24;;;;;;;12.88;11.00;;;3.20;53.50;;;;;;635503;225;26546;-68
2022/03/20 06:37:53;;;;;;;12.60;10.85;;;3.30;53.90;;;;;;632542;227;26562;-68
2022/03/20 06:40:20;;;;;;;12.13;10.82;;;3.30;53.30;;;;;;631086;225;26547;-68
2022/03/20 06:42:47;;;;;;;11.70;10.50;;;3.40;53.50;;;;;;631024;225;26476;-68
2022/03/20 06:45:15;;;;;;;12.07;10.65;;;3.40;53.50;;;;;;647764;221;26536;-68
2022/03/20 06:47:42;;;;;;;14.15;10.88;;;3.50;53.60;;;;;;647841;221;26507;-68
2022/03/20 06:50:10;;;;;;;15.40;10.43;;;3.50;53.40;;;;;;635579;225;26484;-68
2022/03/20 06:52:39;;;;;;;12.98;11.05;;;3.50;53.00;;;;;;624768;230;26524;-68
2022/03/20 06:55:07;;;;;;;11.40;10.20;;;3.60;53.10;;;;;;642481;221;26529;-70
2022/03/20 06:57:35;;;;;;;12.50;11.05;;;3.60;53.00;;;;;;645326;221;26506;-68
2022/03/20 07:00:02;;;;;;;12.80;11.30;;;3.60;53.30;;;;;;629322;225;26866;-67
2022/03/20 07:02:29;;;;;;;12.02;10.77;;;3.60;53.00;;;;;;627174;225;26537;-69
2022/03/20 07:04:56;;;;;;;12.37;10.77;;;3.80;53.00;;;;;;632365;226;26817;-67
2022/03/20 07:07:23;;;;;;;13.05;11.02;;;3.80;52.50;;;;;;637250;225;26602;-68
2022/03/20 07:09:50;;;;;;;13.38;11.43;;;3.90;52.50;;;;;;648276;221;26924;-68
2022/03/20 07:12:18;;;;;;;13.82;11.35;;;3.90;52.50;;;;;;639574;221;26545;-67
2022/03/20 07:14:45;;;;;;;14.30;11.65;;;3.90;52.60;;;;;;639717;221;26789;-69
2022/03/20 07:17:12;;;;;;;14.15;11.75;;;3.90;52.60;;;;;;639265;224;26508;-67
2022/03/20 07:19:39;;;;;;;15.23;11.68;;;3.90;53.30;;;;;;647524;221;26794;-68
2022/03/20 07:22:07;;;;;;;15.07;12.15;;;4.00;52.60;;;;;;645886;221;26563;-68
2022/03/20 07:24:34;;;;;;;13.77;12.25;;;4.00;52.30;;;;;;640961;221;26846;-68
2022/03/20 07:29:34;;;;;;;13.43;11.95;;;4.10;52.30;;;;;;621255;229;26529;-68
2022/03/20 07:32:04;;;;;;;16.52;12.25;;;4.30;51.90;;;;;;634710;225;26572;-68
2022/03/20 07:34:30;;;;;;;13.80;11.70;;;4.20;51.80;;;;;;622571;229;26655;-68
2022/03/20 07:36:57;;;;;;;14.55;11.93;;;4.30;51.90;;;;;;641825;220;26774;-68
2022/03/20 07:39:26;;;;;;;14.98;12.25;;;4.50;51.70;;;;;;632515;225;26616;-67
2022/03/20 07:41:54;;;;;;;15.95;12.05;;;4.50;51.70;;;;;;616779;231;26627;-67
2022/03/20 07:44:23;;;;;;;13.82;11.05;;;4.60;51.70;;;;;;633013;225;26838;-67
2022/03/20 07:46:48;;;;;;;13.35;11.20;;;4.60;51.30;;;;;;637624;225;26447;-65
2022/03/20 07:49:16;;;;;;;17.00;11.98;;;4.70;51.10;;;;;;640976;221;26773;-66
2022/03/20 07:51:43;;;;;;;16.33;11.57;;;4.60;50.80;;;;;;638453;221;27142;-66
2022/03/20 07:54:11;;;;;;;19.33;10.80;;;4.70;50.80;;;;;;639490;223;26507;-67
2022/03/20 07:56:38;;;;;;;19.30;10.93;;;4.80;51.10;;;;;;631990;225;26600;-66
2022/03/20 07:59:06;;;;;;;15.82;11.38;;;4.80;50.30;;;;;;635519;225;26483;-68
2022/03/20 08:01:34;;;;;;;15.48;11.00;;;4.90;50.30;;;;;;627151;229;26736;-67
2022/03/20 08:04:02;;;;;;;14.38;10.48;;;5.00;50.40;;;;;;629626;227;26464;-67
2022/03/20 08:06:28;;;;;;;15.02;11.23;;;5.10;50.30;;;;;;632596;227;26771;-67
2022/03/20 08:08:59;;;;;;;15.43;10.63;;;5.20;50.20;;;;;;620937;231;26543;-66
2022/03/20 08:11:22;;;;;;;140.90;34.33;;;5.30;50.00;;;;;;625853;227;26816;-66
2022/03/20 08:13:50;;;;;;;149.48;36.20;;;5.30;50.00;;;;;;637082;226;26537;-66
2022/03/20 08:16:19;;;;;;;180.50;42.15;;;5.30;50.00;;;;;;645963;221;26776;-67
2022/03/20 08:18:44;;;;;;;143.18;34.13;;;5.50;50.10;;;;;;637817;225;26506;-66
2022/03/20 08:21:12;;;;;;;148.02;34.95;;;5.70;49.30;;;;;;630001;227;26557;-67
2022/03/20 08:23:40;;;;;;;151.52;34.97;;;5.70;49.00;;;;;;634542;224;26566;-65
2022/03/20 08:26:09;;;;;;;157.65;33.95;;;5.90;48.70;;;;;;636908;225;26542;-65
2022/03/20 08:28:37;;;;;;;115.93;28.62;;;5.90;48.30;;;;;;641207;221;26591;-66
2022/03/20 08:31:06;;;;;;;134.30;31.98;;;6.00;48.10;;;;;;634309;224;26516;-65
2022/03/20 08:33:32;;;;;;;125.55;31.98;;;6.10;48.40;;;;;;635164;224;26502;-66
2022/03/20 08:36:00;;;;;;;108.40;26.70;;;6.20;48.10;;;;;;627747;229;26587;-65
2022/03/20 08:38:28;;;;;;;117.87;29.65;;;6.30;47.80;;;;;;634770;225;26506;-65
2022/03/20 08:40:56;;;;;;;102.50;27.15;;;6.30;48.00;;;;;;645488;221;26498;-65
2022/03/20 08:43:24;;;;;;;113.62;29.20;;;6.40;47.60;;;;;;631498;225;26469;-66
2022/03/20 08:45:52;;;;;;;104.78;27.62;;;6.50;47.40;;;;;;642013;221;26546;-66
2022/03/20 08:48:20;;;;;;;98.57;28.58;;;6.60;47.70;;;;;;641622;221;26566;-66
2022/03/20 08:50:49;;;;;;;106.35;27.90;;;6.70;47.40;;;;;;642225;221;26568;-66
2022/03/20 08:53:18;;;;;;;90.95;24.50;;;6.80;47.40;;;;;;632397;225;26605;-66
2022/03/20 08:55:46;;;;;;;103.72;26.62;;;6.80;46.90;;;;;;644515;221;26823;-66
2022/03/20 08:58:13;;;;;;;95.30;26.45;;;6.80;46.90;;;;;;645172;221;26771;-65
2022/03/20 09:00:41;;;;;;;92.55;25.30;;;6.90;47.00;;;;;;645250;221;26523;-64
2022/03/20 09:03:08;;;;;;;73.80;21.60;;;7.00;46.80;;;;;;636163;224;26782;-67
2022/03/20 09:05:35;;;;;;;69.55;21.60;;;7.10;46.90;;;;;;635391;225;26587;-66
2022/03/20 09:08:02;;;;;;;54.78;19.75;;;7.20;46.90;;;;;;623457;229;26588;-67
2022/03/20 09:10:30;;;;;;;70.60;21.05;;;7.20;46.60;;;;;;639512;221;26505;-68
2022/03/20 09:13:00;;;;;;;56.47;19.35;;;7.20;46.50;;;;;;639049;221;26512;-70
2022/03/20 09:15:24;;;;;;;18.45;11.82;;;7.30;46.50;;;;;;639692;221;26551;-69
2022/03/20 09:20:24;;;;;;;119.90;34.22;;;7.50;45.90;;;;;;641648;221;27138;-68
2022/03/20 09:22:51;;;;;;;190.75;46.40;;;7.60;45.80;;;;;;638505;221;26509;-67
2022/03/20 09:25:19;;;;;;;152.82;43.72;;;7.70;46.00;;;;;;640034;221;26784;-67
2022/03/20 09:27:49;;;;;;;116.75;36.83;;;7.80;45.50;;;;;;625375;229;26577;-68
2022/03/20 09:30:15;;;;;;;138.25;38.38;;;7.90;45.50;;;;;;626409;227;26588;-69
2022/03/20 09:32:43;;;;;;;125.03;38.53;;;8.00;44.90;;;;;;626707;226;26581;-69
2022/03/20 09:35:10;;;;;;;121.18;36.17;;;8.10;45.10;;;;;;622844;227;26863;-68
2022/03/20 09:37:37;;;;;;;91.53;31.20;;;8.20;45.00;;;;;;625087;228;26589;-68
2022/03/20 09:40:06;;;;;;;101.90;33.10;;;8.20;45.00;;;;;;623217;227;26819;-69
2022/03/20 09:42:34;;;;;;;87.20;32.30;;;8.30;44.80;;;;;;623318;227;26564;-65
2022/03/20 09:45:00;;;;;;;50.25;22.20;;;8.40;44.30;;;;;;622653;229;26618;-66
2022/03/20 09:47:27;;;;;;;51.90;22.33;;;8.60;45.00;;;;;;629658;227;27262;-67
2022/03/20 09:49:56;;;;;;;49.15;21.60;;;8.70;44.60;;;;;;623801;227;26538;-67
2022/03/20 09:52:23;;;;;;;44.58;22.23;;;8.90;43.90;;;;;;629970;227;26597;-66
2022/03/20 09:54:50;;;;;;;33.75;17.37;;;8.80;43.90;;;;;;633430;227;26556;-66
2022/03/20 09:57:18;;;;;;;23.67;12.68;;;9.00;43.80;;;;;;627992;225;26624;-66
2022/03/20 09:59:48;;;;;;;17.27;12.07;;;9.00;43.90;;;;;;626974;225;26809;-67
2022/03/20 10:02:13;;;;;;;16.35;11.80;;;9.00;43.80;;;;;;634227;225;26540;-66
2022/03/20 10:04:58;;;;;;;18.77;11.93;;;9.00;43.70;;;;;;644548;221;27230;-67
2022/03/20 10:07:26;;;;;;;17.70;11.25;;;9.10;43.40;;;;;;649465;221;26536;-68
2022/03/20 10:10:05;;;;;;;16.70;11.12;;;9.10;42.80;;;;;;635176;225;26536;-67
2022/03/20 10:12:33;;;;;;;15.35;11.07;;;9.10;42.80;;;;;;628392;225;26530;-68
2022/03/20 10:15:00;;;;;;;15.27;10.63;;;9.10;43.00;;;;;;630030;225;26698;-67
2022/03/20 10:17:27;;;;;;;21.62;11.60;;;9.10;42.80;;;;;;632678;227;26514;-67
2022/03/20 10:19:54;;;;;;;15.93;10.60;;;9.20;42.70;;;;;;631563;225;26751;-67
2022/03/20 10:22:23;;;;;;;15.40;10.80;;;9.20;43.00;;;;;;618663;231;26580;-68
2022/03/20 10:24:50;;;;;;;14.13;10.45;;;9.30;42.40;;;;;;618291;232;26945;-66
2022/03/20 10:27:18;;;;;;;13.20;10.23;;;9.40;42.10;;;;;;623176;230;26518;-66
2022/03/20 10:29:47;;;;;;;15.23;10.85;;;9.50;42.40;;;;;;650157;221;26523;-66
2022/03/20 10:32:14;;;;;;;14.30;10.38;;;9.50;42.10;;;;;;639194;225;26472;-65
2022/03/20 10:34:50;;;;;;;12.55;9.98;;;9.50;41.50;;;;;;631106;225;26519;-66
2022/03/20 10:37:17;;;;;;;13.35;10.10;;;9.60;42.00;;;;;;632557;227;26527;-65
2022/03/20 10:39:44;;;;;;;11.82;9.90;;;9.60;41.50;;;;;;622990;229;27159;-66
2022/03/20 10:42:12;;;;;;;14.80;10.23;;;9.70;41.20;;;;;;642643;221;26504;-65
2022/03/20 10:44:40;;;;;;;12.35;10.02;;;9.80;40.80;;;;;;642825;221;26530;-65
2022/03/20 10:47:13;;;;;;;12.60;9.68;;;9.80;40.40;;;;;;640471;220;26563;-65
2022/03/20 10:49:39;;;;;;;14.35;9.82;;;9.80;40.40;;;;;;641778;221;26745;-65
2022/03/20 10:52:08;;;;;;;11.95;8.88;;;9.90;39.70;;;;;;639327;221;26518;-65
2022/03/20 10:54:39;;;;;;;12.23;9.50;;;9.90;39.70;;;;;;629894;227;26752;-65
2022/03/20 10:57:08;;;;;;;10.95;9.38;;;10.00;39.30;;;;;;633168;226;26510;-65
2022/03/20 10:59:35;;;;;;;10.27;9.18;;;10.10;39.30;;;;;;629063;227;26521;-65
2022/03/20 11:02:05;;;;;;;9.90;8.65;;;10.10;38.50;;;;;;625187;230;26538;-65
2022/03/20 11:04:31;;;;;;;12.98;9.60;;;10.10;38.50;;;;;;650084;221;26602;-65
2022/03/20 11:06:59;;;;;;;11.70;9.05;;;10.20;38.90;;;;;;626036;230;26964;-65
2022/03/20 11:09:25;;;;;;;9.63;8.63;;;10.20;38.60;;;;;;649961;221;26472;-65
2022/03/20 11:11:53;;;;;;;12.27;9.00;;;10.40;38.50;;;;;;638060;225;26698;-65
2022/03/20 11:14:19;;;;;;;10.20;8.13;;;10.40;38.10;;;;;;649899;221;26563;-65
2022/03/20 11:16:49;;;;;;;8.57;7.68;;;10.50;37.90;;;;;;637995;225;26716;-65
2022/03/20 11:19:17;;;;;;;10.25;8.70;;;10.50;38.00;;;;;;650077;221;26512;-65
2022/03/20 11:21:44;;;;;;;10.77;8.52;;;10.50;38.20;;;;;;637910;225;26677;-66
2022/03/20 11:24:11;;;;;;;11.18;9.20;;;10.60;38.00;;;;;;649633;221;26511;-65
2022/03/20 11:26:39;;;;;;;11.43;8.32;;;10.50;37.20;;;;;;637742;225;26746;-65
2022/03/20 11:29:08;;;;;;;9.35;8.30;;;10.40;37.00;;;;;;649837;221;26470;-66
2022/03/20 11:31:35;;;;;;;10.68;8.98;;;10.60;37.10;;;;;;637766;225;26503;-65
2022/03/20 11:34:03;;;;;;;9.73;7.87;;;10.60;37.30;;;;;;649772;221;26801;-66
2022/03/20 11:36:30;;;;;;;10.02;8.30;;;10.70;37.30;;;;;;637613;225;26520;-66
2022/03/20 11:39:10;;;;;;;10.95;8.07;;;10.80;37.30;;;;;;649840;221;26823;-66
2022/03/20 11:41:38;;;;;;;10.05;7.90;;;10.90;37.50;;;;;;637763;225;26519;-66
2022/03/20 11:44:14;;;;;;;10.35;8.10;;;10.90;37.90;;;;;;649865;221;26558;-64
2022/03/20 11:46:39;;;;;;;8.85;7.95;;;10.90;37.80;;;;;;637987;225;26716;-64
2022/03/20 11:49:21;;;;;;;8.93;8.02;;;11.00;37.30;;;;;;650235;221;26487;-64
2022/03/20 11:52:06;;;;;;;9.18;8.00;;;11.10;37.70;;;;;;638170;225;26432;-64
2022/03/20 11:54:51;;;;;;;9.07;8.02;;;11.10;37.70;;;;;;649928;221;26580;-63
2022/03/20 11:57:40;;;;;;;10.27;8.25;;;11.20;37.70;;;;;;638111;225;26881;-64
2022/03/20 12:00:11;;;;;;;9.68;8.52;;;11.20;37.60;;;;;;651813;220;26489;-64
2022/03/20 12:02:57;;;;;;;10.65;8.50;;;11.30;37.70;;;;;;638975;225;26497;-64
2022/03/20 12:05:48;;;;;;;9.90;8.45;;;11.30;37.60;;;;;;650509;221;26762;-63
2022/03/20 12:08:22;;;;;;;9.02;8.02;;;11.40;37.10;;;;;;638445;225;26521;-64
2022/03/20 12:11:05;;;;;;;9.80;8.75;;;11.40;37.00;;;;;;650375;221;26561;-65
2022/03/20 12:13:39;;;;;;;10.50;8.68;;;11.50;37.10;;;;;;624766;229;26763;-65
2022/03/20 12:16:06;;;;;;;9.77;8.77;;;11.50;36.40;;;;;;649964;221;26816;-65
2022/03/20 12:18:45;;;;;;;15.02;9.38;;;11.50;36.40;;;;;;638021;225;26460;-69
2022/03/20 12:21:14;;;;;;;14.63;9.38;;;11.60;36.70;;;;;;650102;221;26500;-69
2022/03/20 12:23:43;;;;;;;11.55;9.73;;;11.80;36.60;;;;;;626044;230;26531;-69
2022/03/20 12:26:20;;;;;;;10.88;9.77;;;11.70;36.50;;;;;;649789;221;26803;-69
2022/03/20 12:28:48;;;;;;;11.43;10.23;;;11.80;36.60;;;;;;637918;225;26501;-69
2022/03/20 12:31:31;;;;;;;14.00;11.25;;;11.90;35.80;;;;;;650080;221;26495;-69
2022/03/20 12:34:10;;;;;;;13.23;11.60;;;11.90;35.80;;;;;;635780;225;26471;-69
2022/03/20 12:36:37;;;;;;;12.70;10.65;;;11.90;35.40;;;;;;649834;221;27055;-68
2022/03/20 12:39:05;;;;;;;10.93;9.80;;;12.00;35.50;;;;;;625908;230;26576;-68
2022/03/20 12:41:32;;;;;;;13.55;10.32;;;12.00;35.70;;;;;;649817;221;26808;-69
2022/03/20 12:43:59;;;;;;;11.63;10.43;;;12.00;35.50;;;;;;638131;225;26520;-70
2022/03/20 12:46:26;;;;;;;11.75;10.18;;;12.00;35.30;;;;;;649950;221;27266;-70
2022/03/20 12:48:53;;;;;;;14.87;11.80;;;12.00;35.60;;;;;;637778;225;26499;-70
2022/03/20 12:51:32;;;;;;;13.00;11.55;;;12.00;35.60;;;;;;649775;221;26755;-69
2022/03/20 12:54:02;;;;;;;12.85;11.55;;;12.00;35.20;;;;;;625871;230;26595;-70
2022/03/20 12:56:32;;;;;;;12.88;10.93;;;12.00;35.40;;;;;;650146;221;26788;-69
2022/03/20 12:58:57;;;;;;;11.65;10.45;;;12.10;35.30;;;;;;637821;225;26461;-68
2022/03/20 13:01:26;;;;;;;11.98;10.73;;;12.20;34.90;;;;;;649842;221;26775;-70
2022/03/20 13:03:52;;;;;;;11.40;10.27;;;12.10;34.70;;;;;;625847;230;26848;-67
2022/03/20 13:06:19;;;;;;;11.88;9.88;;;12.20;34.90;;;;;;649732;221;26569;-67
2022/03/20 13:08:46;;;;;;;11.25;9.32;;;12.20;34.70;;;;;;637783;225;26837;-68
2022/03/20 13:14:03;;;;;;;12.57;10.32;;;12.30;34.10;;;;;;630193;225;26496;-69
2022/03/20 13:16:32;;;;;;;10.18;9.15;;;12.30;34.10;;;;;;650452;221;26586;-69
2022/03/20 13:18:58;;;;;;;10.80;9.68;;;12.30;34.20;;;;;;638477;225;26703;-68
2022/03/20 13:21:25;;;;;;;12.70;9.65;;;12.30;34.20;;;;;;650447;221;26569;-70
2022/03/20 13:23:52;;;;;;;12.07;9.98;;;12.30;34.20;;;;;;626567;229;26794;-70